createdAt,value
2022-12-07T00:01:39.874Z,18.77
2022-12-07T00:04:09.414Z,12.50
2022-12-07T00:06:45.126Z,10.73
2022-12-07T00:09:15.858Z,11.15
2022-12-07T00:11:43.397Z,11.70
2022-12-07T00:14:15.949Z,11.93
2022-12-07T00:16:44.235Z,14.70
2022-12-07T00:19:13.684Z,13.30
2022-12-07T00:21:41.138Z,12.73
2022-12-07T00:24:08.461Z,10.15
2022-12-07T00:26:38.919Z,13.18
2022-12-07T00:29:21.541Z,14.18
2022-12-07T00:31:48.801Z,14.50
2022-12-07T00:34:22.804Z,12.98
2022-12-07T00:36:50.972Z,11.10
2022-12-07T00:39:18.261Z,9.73
2022-12-07T00:41:45.303Z,9.65
2022-12-07T00:44:12.284Z,11.30
2022-12-07T00:46:39.155Z,11.30
2022-12-07T00:49:06.089Z,12.80
2022-12-07T00:51:33.089Z,11.82
2022-12-07T00:53:59.917Z,10.88
2022-12-07T00:56:29.598Z,9.20
2022-12-07T00:59:02.733Z,11.18
2022-12-07T01:03:59.423Z,8.43
2022-12-07T01:06:26.853Z,9.07
2022-12-07T01:08:54.306Z,7.93
2022-12-07T01:11:28.457Z,9.30
2022-12-07T01:13:58.180Z,9.40
2022-12-07T01:16:28.556Z,9.57
2022-12-07T01:18:57.397Z,10.18
2022-12-07T01:21:31.354Z,10.52
2022-12-07T01:23:59.319Z,9.57
2022-12-07T01:26:27.620Z,8.85
2022-12-07T01:28:56.180Z,8.23
2022-12-07T01:31:25.847Z,10.55
2022-12-07T01:33:58.115Z,9.68
2022-12-07T01:36:31.941Z,9.83
2022-12-07T01:39:03.604Z,14.30
2022-12-07T01:41:35.752Z,9.30
2022-12-07T01:44:25.393Z,11.65
2022-12-07T01:47:01.929Z,14.45
2022-12-07T01:49:49.390Z,11.07
2022-12-07T01:52:30.133Z,13.25
2022-12-07T01:55:06.247Z,12.57
2022-12-07T01:57:35.952Z,11.30
2022-12-07T02:00:06.436Z,11.05
2022-12-07T02:02:48.944Z,11.27
2022-12-07T02:05:16.437Z,14.97
2022-12-07T02:07:43.530Z,12.25
2022-12-07T02:10:36.756Z,12.23
2022-12-07T02:13:26.620Z,14.10
2022-12-07T02:16:39.907Z,11.90
2022-12-07T02:19:52.558Z,12.67
2022-12-07T02:22:49.598Z,13.73
2022-12-07T02:25:39.623Z,15.05
2022-12-07T02:28:30.701Z,13.32
2022-12-07T02:31:06.703Z,14.85
2022-12-07T02:34:17.782Z,15.20
2022-12-07T02:36:53.311Z,17.80
2022-12-07T02:39:58.344Z,15.02
2022-12-07T02:42:34.311Z,13.93
2022-12-07T02:45:02.968Z,17.73
2022-12-07T02:47:31.148Z,16.00
2022-12-07T02:49:58.173Z,19.80
2022-12-07T02:52:24.984Z,13.57
2022-12-07T02:54:51.787Z,16.30
2022-12-07T02:57:39.860Z,17.20
2022-12-07T03:00:12.342Z,17.50
2022-12-07T03:02:55.486Z,17.88
2022-12-07T03:05:53.151Z,16.08
2022-12-07T03:08:48.101Z,18.13
2022-12-07T03:11:26.933Z,20.42
2022-12-07T03:14:04.545Z,22.67
2022-12-07T03:16:56.742Z,19.63
2022-12-07T03:19:25.637Z,15.27
2022-12-07T03:22:02.911Z,19.25
2022-12-07T03:24:41.875Z,18.67
2022-12-07T03:27:38.133Z,19.67
2022-12-07T03:30:14.258Z,20.92
2022-12-07T03:32:51.991Z,20.63
2022-12-07T03:35:52.687Z,18.50
2022-12-07T03:39:10.399Z,17.40
2022-12-07T03:41:44.802Z,20.35
2022-12-07T03:44:12.507Z,18.63
2022-12-07T03:47:07.755Z,20.73
2022-12-07T03:50:04.582Z,17.30
2022-12-07T03:52:43.858Z,16.08
2022-12-07T03:55:30.973Z,17.38
2022-12-07T03:58:06.284Z,16.65
2022-12-07T04:00:33.911Z,17.63
2022-12-07T04:03:00.747Z,15.98
2022-12-07T04:05:28.294Z,19.35
2022-12-07T04:07:55.424Z,16.40
2022-12-07T04:10:22.455Z,17.90
2022-12-07T04:12:49.302Z,16.15
2022-12-07T04:15:16.449Z,17.23
2022-12-07T04:17:44.390Z,16.65
2022-12-07T04:20:12.494Z,20.10
2022-12-07T04:22:39.411Z,20.65
2022-12-07T04:25:07.037Z,20.05
2022-12-07T04:27:33.969Z,16.50
2022-12-07T04:30:01.473Z,15.95
2022-12-07T04:32:28.554Z,22.52
2022-12-07T04:34:56.059Z,18.85
2022-12-07T04:37:24.292Z,20.88
2022-12-07T04:39:51.786Z,18.55
2022-12-07T04:42:18.751Z,23.08
2022-12-07T04:44:45.673Z,23.70
2022-12-07T04:47:12.826Z,20.27
2022-12-07T04:49:39.736Z,19.70
2022-12-07T04:52:06.664Z,22.00
2022-12-07T04:54:33.989Z,21.52
2022-12-07T04:57:00.814Z,20.85
2022-12-07T04:59:27.679Z,24.40
2022-12-07T05:01:54.669Z,20.92
2022-12-07T05:04:21.591Z,24.27
2022-12-07T05:06:48.399Z,21.67
2022-12-07T05:09:15.224Z,20.90
2022-12-07T05:11:42.154Z,20.52
2022-12-07T05:14:21.539Z,21.52
2022-12-07T05:16:51.658Z,22.38
2022-12-07T05:19:20.099Z,21.80
2022-12-07T05:21:47.436Z,27.67
2022-12-07T05:24:16.557Z,24.35
2022-12-07T05:26:43.967Z,23.80
2022-12-07T05:29:17.077Z,23.92
2022-12-07T05:31:45.359Z,23.23
2022-12-07T05:34:12.632Z,25.92
2022-12-07T05:36:39.403Z,24.13
2022-12-07T05:39:06.463Z,22.33
2022-12-07T05:41:52.007Z,22.60
2022-12-07T05:44:19.159Z,21.98
2022-12-07T05:46:46.009Z,21.45
2022-12-07T05:49:13.060Z,24.58
2022-12-07T05:51:40.485Z,22.02
2022-12-07T05:54:07.342Z,29.83
2022-12-07T05:56:34.363Z,28.02
2022-12-07T05:59:19.658Z,25.27
2022-12-07T06:01:46.651Z,24.45
2022-12-07T06:04:13.593Z,25.17
2022-12-07T06:06:40.458Z,29.45
2022-12-07T06:09:07.541Z,30.75
2022-12-07T06:11:53.446Z,31.73
2022-12-07T06:14:20.512Z,25.90
2022-12-07T06:16:47.670Z,31.55
2022-12-07T06:19:14.667Z,31.17
2022-12-07T06:21:41.738Z,29.60
2022-12-07T06:24:09.577Z,30.20
2022-12-07T06:26:36.387Z,33.15
2022-12-07T06:29:03.480Z,29.90
2022-12-07T06:31:30.364Z,31.60
2022-12-07T06:34:07.588Z,28.95
2022-12-07T06:36:34.598Z,28.63
2022-12-07T06:39:02.051Z,25.88
2022-12-07T06:41:29.133Z,30.90
2022-12-07T06:43:56.549Z,26.42
2022-12-07T06:46:24.547Z,28.80
2022-12-07T06:48:51.654Z,29.02
2022-12-07T06:51:18.599Z,29.58
2022-12-07T06:53:45.440Z,33.15
2022-12-07T06:56:12.647Z,32.00
2022-12-07T06:58:40.599Z,29.95
2022-12-07T07:01:16.502Z,30.67
2022-12-07T07:03:43.884Z,26.95
2022-12-07T07:06:10.836Z,28.77
2022-12-07T07:08:39.055Z,25.83
2022-12-07T07:11:07.325Z,23.83
2022-12-07T07:13:34.586Z,23.33
2022-12-07T07:16:01.711Z,25.58
2022-12-07T07:18:29.230Z,27.52
2022-12-07T07:20:56.468Z,24.42
2022-12-07T07:23:24.316Z,22.42
2022-12-07T07:25:51.351Z,19.02
2022-12-07T07:28:18.452Z,20.27
2022-12-07T07:30:46.191Z,25.80
2022-12-07T07:33:13.905Z,26.23
2022-12-07T07:35:40.868Z,26.52
2022-12-07T07:38:08.371Z,29.65
2022-12-07T07:40:35.685Z,26.48
2022-12-07T07:43:02.790Z,26.75
2022-12-07T07:45:30.055Z,27.95
2022-12-07T07:47:56.834Z,30.38
2022-12-07T07:50:24.090Z,30.88
2022-12-07T07:52:52.266Z,30.48
2022-12-07T07:55:19.259Z,32.42
2022-12-07T07:57:51.155Z,33.78
2022-12-07T08:00:22.210Z,27.08
2022-12-07T08:02:49.117Z,30.20
2022-12-07T08:05:16.164Z,34.83
2022-12-07T08:07:44.472Z,27.50
2022-12-07T08:10:14.446Z,28.58
2022-12-07T08:13:02.370Z,27.33
2022-12-07T08:15:31.466Z,25.73
2022-12-07T08:17:59.037Z,33.45
2022-12-07T08:20:26.370Z,28.00
2022-12-07T08:22:53.304Z,30.00
2022-12-07T08:25:22.216Z,31.45
2022-12-07T08:27:50.397Z,30.50
2022-12-07T08:30:17.706Z,29.80
2022-12-07T08:32:48.790Z,29.90
2022-12-07T08:35:16.710Z,25.88
2022-12-07T08:37:44.104Z,27.42
2022-12-07T08:40:16.161Z,28.75
2022-12-07T08:42:45.606Z,34.45
2022-12-07T08:45:15.064Z,32.10
2022-12-07T08:47:53.838Z,37.75
2022-12-07T08:50:21.798Z,27.23
2022-12-07T08:52:56.620Z,25.95
2022-12-07T08:55:24.298Z,27.08
2022-12-07T08:57:51.567Z,32.88
2022-12-07T09:00:19.468Z,32.22
2022-12-07T09:02:47.451Z,30.33
2022-12-07T09:05:17.031Z,28.23
2022-12-07T09:07:52.937Z,32.17
2022-12-07T09:10:20.069Z,26.90
2022-12-07T09:12:47.473Z,30.55
2022-12-07T09:15:14.337Z,28.40
2022-12-07T09:17:41.293Z,27.95
2022-12-07T09:20:08.848Z,31.70
2022-12-07T09:22:35.777Z,28.10
2022-12-07T09:25:04.463Z,27.85
2022-12-07T09:27:31.671Z,23.88
2022-12-07T09:29:58.639Z,27.95
2022-12-07T09:32:25.590Z,29.67
2022-12-07T09:34:52.693Z,26.58
2022-12-07T09:37:19.822Z,31.20
2022-12-07T09:39:50.323Z,24.60
2022-12-07T09:42:40.730Z,26.88
2022-12-07T09:45:14.320Z,25.75
2022-12-07T09:47:41.129Z,26.38
2022-12-07T09:50:16.908Z,23.75
2022-12-07T09:52:46.941Z,24.25
2022-12-07T09:55:24.619Z,27.30
2022-12-07T09:57:52.741Z,31.15
2022-12-07T10:00:23.335Z,28.85
2022-12-07T10:03:03.706Z,29.98
2022-12-07T10:05:51.859Z,27.73
2022-12-07T10:08:19.181Z,29.60
2022-12-07T10:10:51.544Z,24.77
2022-12-07T10:13:35.820Z,26.85
2022-12-07T10:16:06.890Z,27.38
2022-12-07T10:18:42.640Z,40.30
2022-12-07T10:21:09.974Z,73.32
2022-12-07T10:23:40.059Z,43.20
2022-12-07T10:26:54.379Z,38.47
2022-12-07T10:29:38.476Z,25.95
2022-12-07T10:32:30.956Z,23.98
2022-12-07T10:35:26.548Z,24.20
2022-12-07T10:37:56.031Z,21.23
2022-12-07T10:40:34.583Z,25.77
2022-12-07T10:43:20.724Z,29.65
2022-12-07T10:46:11.439Z,25.13
2022-12-07T10:48:51.035Z,23.83
2022-12-07T10:51:30.157Z,23.42
2022-12-07T10:54:15.967Z,24.08
2022-12-07T10:56:58.234Z,25.02
2022-12-07T11:00:02.829Z,28.77
2022-12-07T11:02:51.309Z,24.45
2022-12-07T11:05:47.640Z,25.92
2022-12-07T11:08:47.824Z,18.30
2022-12-07T11:11:24.035Z,19.45
2022-12-07T11:14:42.106Z,22.45
2022-12-07T11:17:37.690Z,23.88
2022-12-07T11:20:37.360Z,25.50
2022-12-07T11:23:19.130Z,20.10
2022-12-07T11:26:27.616Z,20.17
2022-12-07T11:29:12.540Z,23.40
2022-12-07T11:32:07.628Z,23.63
2022-12-07T11:35:14.678Z,16.02
2022-12-07T11:37:44.253Z,15.68
2022-12-07T11:40:26.666Z,16.10
2022-12-07T11:43:27.074Z,17.38
2022-12-07T11:46:13.699Z,18.23
2022-12-07T11:48:56.183Z,18.85
2022-12-07T11:51:29.031Z,14.87
2022-12-07T11:54:26.548Z,17.58
2022-12-07T11:56:57.456Z,19.10
2022-12-07T11:59:33.759Z,15.20
2022-12-07T12:02:17.007Z,16.00
2022-12-07T12:11:10.202Z,15.05
2022-12-07T12:17:29.820Z,18.23
2022-12-07T12:20:31.929Z,15.02
2022-12-07T12:23:14.428Z,16.50
2022-12-07T12:25:48.783Z,14.53
2022-12-07T12:28:31.445Z,14.63
2022-12-07T12:31:33.797Z,13.73
2022-12-07T12:34:04.789Z,16.33
2022-12-07T12:36:46.815Z,14.93
2022-12-07T12:39:20.160Z,14.10
2022-12-07T12:41:49.741Z,14.65
2022-12-07T12:44:16.484Z,16.48
2022-12-07T12:46:53.543Z,15.15
2022-12-07T12:49:20.330Z,16.45
2022-12-07T12:51:59.185Z,16.95
2022-12-07T12:54:35.427Z,18.77
2022-12-07T12:57:13.658Z,30.25
2022-12-07T12:59:52.118Z,16.27
2022-12-07T13:02:29.613Z,13.18
2022-12-07T13:05:20.618Z,14.02
2022-12-07T13:07:53.452Z,16.45
2022-12-07T13:10:30.059Z,14.45
2022-12-07T13:13:12.294Z,14.70
2022-12-07T13:15:51.790Z,16.00
2022-12-07T13:18:28.305Z,16.63
2022-12-07T13:21:24.147Z,11.60
2022-12-07T13:23:51.304Z,14.70
2022-12-07T13:26:33.243Z,11.95
2022-12-07T13:29:17.653Z,12.85
2022-12-07T13:31:54.037Z,13.07
2022-12-07T13:34:42.655Z,12.38
2022-12-07T13:37:26.070Z,14.10
2022-12-07T13:40:16.255Z,12.48
2022-12-07T13:42:43.321Z,12.27
2022-12-07T13:45:47.380Z,13.07
2022-12-07T13:48:33.435Z,12.77
2022-12-07T13:51:03.923Z,15.75
2022-12-07T13:53:31.652Z,11.80
2022-12-07T13:56:00.971Z,14.30
2022-12-07T13:58:34.126Z,12.05
2022-12-07T14:03:35.228Z,13.18
2022-12-07T14:06:27.884Z,12.82
2022-12-07T14:09:20.541Z,15.63
2022-12-07T14:11:50.756Z,16.73
2022-12-07T14:14:37.858Z,12.85
2022-12-07T14:17:20.736Z,13.68
2022-12-07T14:19:50.497Z,10.93
2022-12-07T14:22:38.195Z,14.07
2022-12-07T14:25:27.589Z,11.98
2022-12-07T14:27:59.319Z,11.50
2022-12-07T14:30:32.789Z,13.02
2022-12-07T14:33:05.327Z,15.45
2022-12-07T14:35:33.606Z,12.75
2022-12-07T14:38:00.885Z,18.40
2022-12-07T14:40:30.865Z,13.23
2022-12-07T14:43:11.924Z,14.90
2022-12-07T14:45:40.537Z,13.57
2022-12-07T14:53:57.008Z,15.93
2022-12-07T14:56:25.513Z,17.83
2022-12-07T14:58:52.734Z,18.42
2022-12-07T15:01:19.719Z,14.93
2022-12-07T15:03:46.658Z,12.68
2022-12-07T15:06:19.085Z,15.15
2022-12-07T15:08:46.759Z,13.95
2022-12-07T15:11:15.855Z,14.80
2022-12-07T15:14:01.106Z,15.27
2022-12-07T15:16:33.474Z,12.95
2022-12-07T15:19:29.161Z,11.27
2022-12-07T15:21:57.889Z,14.65
2022-12-07T15:24:25.207Z,14.43
2022-12-07T15:26:52.681Z,13.07
2022-12-07T15:29:23.092Z,12.55
2022-12-07T15:31:57.833Z,16.38
2022-12-07T15:34:27.605Z,14.93
2022-12-07T15:36:54.662Z,16.33
2022-12-07T15:39:22.606Z,16.48
2022-12-07T15:41:49.535Z,17.70
2022-12-07T15:44:35.232Z,17.85
2022-12-07T15:47:02.155Z,16.73
2022-12-07T15:49:29.237Z,18.48
2022-12-07T15:51:56.299Z,17.60
2022-12-07T15:54:25.760Z,14.07
2022-12-07T15:56:53.033Z,17.85
2022-12-07T15:59:19.963Z,17.58
2022-12-07T16:01:46.932Z,18.20
2022-12-07T16:04:14.162Z,14.73
2022-12-07T16:06:41.700Z,12.95
2022-12-07T16:09:08.962Z,14.88
2022-12-07T16:11:35.849Z,16.73
2022-12-07T16:14:02.961Z,15.50
2022-12-07T16:16:30.235Z,28.38
2022-12-07T16:18:58.153Z,30.55
2022-12-07T16:21:25.809Z,28.88
2022-12-07T16:23:53.004Z,30.90
2022-12-07T16:26:22.856Z,32.45
2022-12-07T16:28:51.739Z,32.90
2022-12-07T16:31:22.425Z,31.20
2022-12-07T16:33:50.228Z,30.30
2022-12-07T16:36:39.856Z,55.00
2022-12-07T16:39:07.212Z,54.42
2022-12-07T16:41:34.560Z,52.42
2022-12-07T16:44:06.294Z,52.83
2022-12-07T16:46:37.620Z,39.85
2022-12-07T16:49:05.773Z,37.72
2022-12-07T16:51:35.596Z,34.47
2022-12-07T16:54:02.468Z,35.40
2022-12-07T16:56:30.093Z,37.25
2022-12-07T16:58:59.740Z,29.33
2022-12-07T17:01:29.385Z,17.58
2022-12-07T17:04:00.235Z,25.60
2022-12-07T17:06:29.714Z,29.30
2022-12-07T17:08:58.018Z,28.27
2022-12-07T17:11:33.699Z,60.90
2022-12-07T17:14:19.619Z,41.28
2022-12-07T17:16:46.584Z,47.28
2022-12-07T17:19:16.493Z,31.58
2022-12-07T17:21:44.354Z,40.63
2022-12-07T17:24:15.102Z,35.97
2022-12-07T17:26:43.936Z,58.40
2022-12-07T17:29:13.994Z,206.30
2022-12-07T17:31:46.277Z,100.50
2022-12-07T17:34:17.173Z,31.05
2022-12-07T17:36:46.080Z,26.70
2022-12-07T17:39:18.095Z,24.10
2022-12-07T17:42:03.457Z,26.08
2022-12-07T17:44:30.777Z,23.60
2022-12-07T17:46:59.080Z,23.30
2022-12-07T17:49:27.388Z,45.17
2022-12-07T17:52:13.242Z,20.50
2022-12-07T17:54:40.305Z,19.10
2022-12-07T17:57:07.697Z,22.08
2022-12-07T17:59:34.601Z,22.40
2022-12-07T18:02:01.657Z,26.77
2022-12-07T18:04:30.419Z,19.98
2022-12-07T18:07:15.072Z,25.13
2022-12-07T18:09:42.380Z,29.30
2022-12-07T18:12:09.555Z,21.02
2022-12-07T18:14:36.661Z,26.15
2022-12-07T18:17:03.702Z,23.35
2022-12-07T18:19:31.051Z,128.57
2022-12-07T18:21:59.975Z,21.50
2022-12-07T18:24:39.155Z,23.98
2022-12-07T18:27:07.513Z,25.17
2022-12-07T18:29:34.453Z,30.55
2022-12-07T18:32:01.828Z,21.83
2022-12-07T18:34:30.510Z,22.10
2022-12-07T18:36:57.827Z,22.83
2022-12-07T18:39:33.260Z,18.52
2022-12-07T18:42:01.041Z,26.15
2022-12-07T18:44:27.947Z,22.15
2022-12-07T18:46:54.728Z,24.75
2022-12-07T18:49:21.666Z,24.88
2022-12-07T18:51:48.618Z,19.75
2022-12-07T18:54:15.416Z,20.92
2022-12-07T18:56:42.375Z,26.27
2022-12-07T18:59:32.725Z,30.13
2022-12-07T19:01:59.814Z,28.00
2022-12-07T19:04:26.733Z,26.15
2022-12-07T19:06:53.720Z,25.80
2022-12-07T19:09:20.675Z,28.58
2022-12-07T19:11:50.745Z,24.40
2022-12-07T19:14:28.464Z,27.95
2022-12-07T19:17:02.944Z,25.35
2022-12-07T19:19:37.399Z,28.35
2022-12-07T19:22:05.712Z,28.90
2022-12-07T19:24:33.177Z,27.45
2022-12-07T19:27:00.302Z,29.38
2022-12-07T19:29:31.404Z,30.50
2022-12-07T19:32:00.028Z,29.20
2022-12-07T19:34:27.265Z,27.25
2022-12-07T19:36:54.308Z,28.35
2022-12-07T19:39:21.423Z,35.60
2022-12-07T19:41:48.484Z,34.15
2022-12-07T19:44:23.415Z,27.52
2022-12-07T19:46:51.947Z,35.58
2022-12-07T19:49:20.631Z,33.45
2022-12-07T19:51:51.454Z,28.17
2022-12-07T19:54:21.867Z,27.40
2022-12-07T19:56:51.934Z,31.85
2022-12-07T19:59:22.550Z,28.27
2022-12-07T20:01:51.951Z,30.77
2022-12-07T20:04:29.382Z,31.77
2022-12-07T20:07:00.166Z,36.55
2022-12-07T20:09:27.559Z,31.80
2022-12-07T20:12:12.950Z,32.72
2022-12-07T20:14:39.964Z,29.73
2022-12-07T20:17:07.563Z,32.13
2022-12-07T20:19:38.549Z,31.02
2022-12-07T20:22:06.410Z,31.25
2022-12-07T20:24:35.955Z,31.33
2022-12-07T20:27:04.819Z,30.60
2022-12-07T20:29:31.998Z,31.25
2022-12-07T20:31:59.094Z,32.00
2022-12-07T20:34:26.537Z,27.85
2022-12-07T20:36:54.923Z,34.25
2022-12-07T20:39:23.575Z,31.15
2022-12-07T20:42:09.547Z,29.33
2022-12-07T20:44:36.456Z,27.08
2022-12-07T20:47:05.954Z,34.83
2022-12-07T20:49:33.698Z,30.95
2022-12-07T20:52:00.763Z,32.47
2022-12-07T20:54:27.554Z,36.28
2022-12-07T20:56:54.499Z,33.45
2022-12-07T20:59:21.482Z,32.97
2022-12-07T21:01:48.601Z,31.90
2022-12-07T21:04:15.918Z,34.92
2022-12-07T21:06:43.047Z,37.38
2022-12-07T21:09:12.206Z,38.33
2022-12-07T21:11:39.675Z,38.78
2022-12-07T21:14:07.757Z,44.30
2022-12-07T21:16:34.908Z,37.70
2022-12-07T21:19:03.517Z,37.60
2022-12-07T21:21:32.819Z,41.72
2022-12-07T21:24:02.869Z,36.97
2022-12-07T21:26:33.978Z,37.92
2022-12-07T21:29:03.078Z,39.78
2022-12-07T21:31:30.176Z,44.38
2022-12-07T21:33:57.274Z,36.05
2022-12-07T21:36:26.796Z,43.03
2022-12-07T21:38:54.108Z,50.30
2022-12-07T21:41:30.245Z,41.17
2022-12-07T21:43:58.201Z,39.42
2022-12-07T21:46:33.751Z,46.75
2022-12-07T21:49:08.494Z,41.25
2022-12-07T21:51:35.665Z,43.15
2022-12-07T21:54:04.188Z,41.17
2022-12-07T21:56:37.853Z,36.13
2022-12-07T21:59:14.759Z,42.50
2022-12-07T22:01:45.766Z,49.25
2022-12-07T22:04:20.084Z,40.38
2022-12-07T22:06:48.046Z,48.85
2022-12-07T22:09:15.533Z,40.90
2022-12-07T22:11:42.383Z,41.05
2022-12-07T22:14:29.558Z,35.45
2022-12-07T22:16:57.759Z,46.08
2022-12-07T22:19:25.981Z,37.92
2022-12-07T22:21:53.025Z,42.83
2022-12-07T22:24:19.893Z,50.00
2022-12-07T22:26:46.802Z,39.65
2022-12-07T22:29:13.793Z,45.20
2022-12-07T22:31:41.181Z,46.65
2022-12-07T22:34:14.710Z,40.60
2022-12-07T22:36:41.770Z,51.15
2022-12-07T22:39:09.810Z,43.40
2022-12-07T22:41:36.694Z,39.25
2022-12-07T22:44:07.622Z,47.88
2022-12-07T22:46:35.252Z,39.33
2022-12-07T22:49:02.811Z,37.15
2022-12-07T22:51:35.893Z,45.33
2022-12-07T22:54:05.657Z,38.80
2022-12-07T22:56:37.081Z,32.40
2022-12-07T22:59:07.628Z,37.67
2022-12-07T23:01:35.775Z,41.47
2022-12-07T23:04:02.771Z,41.50
2022-12-07T23:06:32.242Z,31.67
2022-12-07T23:09:02.831Z,36.25
2022-12-07T23:11:51.120Z,33.50
2022-12-07T23:14:27.524Z,35.50
2022-12-07T23:16:54.563Z,36.40
2022-12-07T23:19:21.536Z,38.53
2022-12-07T23:21:48.542Z,38.03
2022-12-07T23:24:16.298Z,42.13
2022-12-07T23:26:44.532Z,39.80
2022-12-07T23:29:17.268Z,39.35
2022-12-07T23:31:48.418Z,34.08
2022-12-07T23:34:15.374Z,43.50
2022-12-07T23:36:42.370Z,36.72
2022-12-07T23:39:10.476Z,39.15
2022-12-07T23:41:37.594Z,41.80
2022-12-07T23:44:04.897Z,38.78
2022-12-07T23:46:33.788Z,34.72
2022-12-07T23:49:04.166Z,36.83
2022-12-07T23:51:31.336Z,37.05
2022-12-07T23:54:01.128Z,30.70
2022-12-07T23:56:30.729Z,30.20
2022-12-07T23:58:58.566Z,27.90
